createdAt,value
2023-03-02T00:05:06.000Z,21.60
2023-03-02T00:15:06.000Z,20.70
2023-03-02T00:25:06.000Z,23.10
2023-03-02T00:35:06.000Z,21.00
2023-03-02T00:45:06.000Z,21.40
2023-03-02T00:55:06.000Z,20.60
2023-03-02T01:05:06.000Z,24.90
2023-03-02T01:15:06.000Z,26.40
2023-03-02T01:25:05.000Z,22.70
2023-03-02T01:35:05.000Z,27.20
2023-03-02T01:45:05.000Z,25.10
2023-03-02T01:55:05.000Z,25.40
2023-03-02T02:05:05.000Z,20.20
2023-03-02T02:15:05.000Z,19.90
2023-03-02T02:25:05.000Z,20.30
2023-03-02T02:35:05.000Z,23.80
2023-03-02T02:45:05.000Z,22.50
2023-03-02T02:55:05.000Z,19.60
2023-03-02T03:05:05.000Z,21.60
2023-03-02T03:15:04.000Z,23.10
2023-03-02T03:25:04.000Z,25.30
2023-03-02T03:35:04.000Z,26.40
2023-03-02T03:45:04.000Z,24.50
2023-03-02T03:55:04.000Z,26.20
2023-03-02T04:05:04.000Z,32.90
2023-03-02T04:15:04.000Z,27.00
2023-03-02T04:25:04.000Z,30.40
2023-03-02T04:35:04.000Z,26.50
2023-03-02T04:45:04.000Z,24.80
2023-03-02T04:55:04.000Z,22.30
2023-03-02T05:05:03.000Z,26.20
2023-03-02T05:15:03.000Z,23.30
2023-03-02T05:25:03.000Z,22.20
2023-03-02T05:35:03.000Z,23.30
2023-03-02T05:45:03.000Z,23.60
2023-03-02T05:55:03.000Z,25.90
2023-03-02T06:05:03.000Z,21.50
2023-03-02T06:15:03.000Z,22.80
2023-03-02T06:25:03.000Z,27.70
2023-03-02T06:35:03.000Z,24.10
2023-03-02T06:45:03.000Z,27.10
2023-03-02T06:55:02.000Z,23.60
2023-03-02T07:05:02.000Z,24.10
2023-03-02T07:15:02.000Z,24.00
2023-03-02T07:25:02.000Z,25.40
2023-03-02T07:35:02.000Z,26.80
2023-03-02T07:45:02.000Z,30.90
2023-03-02T07:55:02.000Z,26.40
2023-03-02T08:05:02.000Z,30.90
2023-03-02T08:15:02.000Z,31.30
2023-03-02T08:25:02.000Z,37.10
2023-03-02T08:35:02.000Z,34.00
2023-03-02T08:45:01.000Z,37.10
2023-03-02T08:55:01.000Z,29.00
2023-03-02T09:05:01.000Z,39.10
2023-03-02T09:15:01.000Z,37.90
2023-03-02T09:25:01.000Z,41.70
2023-03-02T09:35:01.000Z,42.50
2023-03-02T09:45:01.000Z,38.10
2023-03-02T09:55:01.000Z,41.90
2023-03-02T10:05:01.000Z,42.10
2023-03-02T10:15:01.000Z,42.60
2023-03-02T10:25:00.000Z,34.50
2023-03-02T10:35:00.000Z,39.70
2023-03-02T10:45:00.000Z,36.00
2023-03-02T10:55:00.000Z,35.30
2023-03-02T11:05:00.000Z,32.70
2023-03-02T11:15:00.000Z,31.50
2023-03-02T11:25:00.000Z,46.00
2023-03-02T11:35:00.000Z,41.10
2023-03-02T11:45:00.000Z,30.00
2023-03-02T11:55:00.000Z,20.70
2023-03-02T12:05:00.000Z,19.50
2023-03-02T12:14:59.000Z,16.10
2023-03-02T12:24:59.000Z,24.40
2023-03-02T12:34:59.000Z,21.40
2023-03-02T12:44:59.000Z,13.40
2023-03-02T12:54:59.000Z,15.00
2023-03-02T13:04:59.000Z,15.50
2023-03-02T13:14:59.000Z,14.80
2023-03-02T13:24:59.000Z,20.30
2023-03-02T13:34:59.000Z,16.00
2023-03-02T13:44:59.000Z,12.90
2023-03-02T13:54:58.000Z,15.50
2023-03-02T14:04:58.000Z,16.60
2023-03-02T14:14:58.000Z,15.30
2023-03-02T14:24:58.000Z,17.80
2023-03-02T14:34:58.000Z,13.00
2023-03-02T14:44:58.000Z,19.00
2023-03-02T14:54:58.000Z,10.00
2023-03-02T15:04:58.000Z,84.40
2023-03-02T15:14:58.000Z,485.30
2023-03-02T15:24:58.000Z,619.00
2023-03-02T15:34:57.000Z,92.30
2023-03-02T15:44:57.000Z,281.70
2023-03-02T15:54:57.000Z,88.40
2023-03-02T16:04:57.000Z,23.80
2023-03-02T16:14:57.000Z,29.70
2023-03-02T16:24:57.000Z,147.30
2023-03-02T16:34:57.000Z,21.50
2023-03-02T16:44:57.000Z,64.90
2023-03-02T16:54:57.000Z,59.40
2023-03-02T17:04:56.000Z,59.80
2023-03-02T17:14:56.000Z,62.80
2023-03-02T17:24:56.000Z,61.40
2023-03-02T17:34:56.000Z,62.50
2023-03-02T17:44:56.000Z,69.50
2023-03-02T17:54:56.000Z,77.70
2023-03-02T18:04:56.000Z,76.10
2023-03-02T18:14:56.000Z,75.50
2023-03-02T18:24:56.000Z,84.50
2023-03-02T18:34:56.000Z,96.00
2023-03-02T18:44:56.000Z,93.40
2023-03-02T18:54:55.000Z,97.30
2023-03-02T19:04:55.000Z,107.10
2023-03-02T19:14:55.000Z,107.00
2023-03-02T19:24:55.000Z,110.50
2023-03-02T19:34:55.000Z,125.50
2023-03-02T19:44:55.000Z,122.00
2023-03-02T19:54:55.000Z,122.70
2023-03-02T20:04:55.000Z,146.90
2023-03-02T20:14:55.000Z,252.60
2023-03-02T20:24:55.000Z,290.80
2023-03-02T20:34:54.000Z,431.30
2023-03-02T20:44:54.000Z,630.60
2023-03-02T20:54:54.000Z,464.50
2023-03-02T21:04:54.000Z,717.40
2023-03-02T21:14:54.000Z,656.30
2023-03-02T21:24:54.000Z,567.50
2023-03-02T21:34:54.000Z,510.80
2023-03-02T21:44:54.000Z,548.70
2023-03-02T21:54:54.000Z,513.80
2023-03-02T22:04:54.000Z,731.10
2023-03-02T22:14:54.000Z,499.30
2023-03-02T22:24:53.000Z,539.70
2023-03-02T22:34:53.000Z,620.20
2023-03-02T22:44:53.000Z,531.40
2023-03-02T22:54:53.000Z,623.00
2023-03-02T23:04:53.000Z,504.30
2023-03-02T23:14:53.000Z,619.90
2023-03-02T23:24:53.000Z,483.60
2023-03-02T23:34:53.000Z,407.70
2023-03-02T23:44:53.000Z,490.90
2023-03-02T23:54:53.000Z,460.20
